createdAt,value
2019-03-05T00:00:55.132Z,141.37
2019-03-05T00:03:23.783Z,146.37
2019-03-05T00:05:52.461Z,150.27
2019-03-05T00:08:20.723Z,144.03
2019-03-05T00:10:49.727Z,143.93
2019-03-05T00:13:18.331Z,144.07
2019-03-05T00:15:48.794Z,144.23
2019-03-05T00:18:17.382Z,153.93
2019-03-05T00:20:48.161Z,154.17
2019-03-05T00:23:36.336Z,144.93
2019-03-05T00:26:05.094Z,149.00
2019-03-05T00:28:39.787Z,141.83
2019-03-05T00:31:11.615Z,140.90
2019-03-05T00:34:08.919Z,141.17
2019-03-05T00:36:43.780Z,140.50
2019-03-05T00:39:27.476Z,142.47
2019-03-05T00:42:11.173Z,138.67
2019-03-05T00:45:03.812Z,142.30
2019-03-05T00:47:44.502Z,143.07
2019-03-05T00:50:22.103Z,142.20
2019-03-05T00:53:13.137Z,147.57
2019-03-05T00:55:49.759Z,148.80
2019-03-05T00:58:20.976Z,139.63
2019-03-05T01:01:03.009Z,142.93
2019-03-05T01:03:46.864Z,140.50
2019-03-05T01:06:19.907Z,140.80
2019-03-05T01:08:48.493Z,144.43
2019-03-05T01:11:17.306Z,138.73
2019-03-05T01:13:45.876Z,133.50
2019-03-05T01:16:16.109Z,141.70
2019-03-05T01:18:44.653Z,146.97
2019-03-05T01:21:12.983Z,155.20
2019-03-05T01:23:41.254Z,144.00
2019-03-05T01:26:09.794Z,144.93
2019-03-05T01:28:38.047Z,142.57
2019-03-05T01:31:24.248Z,140.50
2019-03-05T01:33:57.211Z,142.27
2019-03-05T01:36:42.225Z,138.53
2019-03-05T01:39:30.776Z,129.97
2019-03-05T01:41:59.381Z,135.03
2019-03-05T01:44:27.883Z,139.73
2019-03-05T01:46:56.147Z,141.13
2019-03-05T01:49:25.422Z,135.07
2019-03-05T01:51:54.056Z,139.03
2019-03-05T01:54:22.620Z,139.57
2019-03-05T01:56:51.218Z,149.27
2019-03-05T01:59:19.484Z,132.57
2019-03-05T02:01:47.748Z,132.17
2019-03-05T02:04:16.757Z,131.43
2019-03-05T02:06:45.326Z,150.73
2019-03-05T02:09:13.889Z,148.57
2019-03-05T02:11:42.182Z,138.87
2019-03-05T02:14:10.691Z,141.27
2019-03-05T02:16:39.331Z,136.00
2019-03-05T02:19:33.982Z,151.90
2019-03-05T02:22:02.553Z,138.87
2019-03-05T02:24:52.340Z,142.87
2019-03-05T02:27:41.956Z,156.77
2019-03-05T02:30:40.069Z,153.40
2019-03-05T02:33:43.461Z,138.33
2019-03-05T02:36:22.583Z,147.43
2019-03-05T02:39:03.257Z,152.30
2019-03-05T02:41:37.586Z,156.10
2019-03-05T02:44:41.259Z,141.23
2019-03-05T02:47:44.684Z,147.90
2019-03-05T02:50:43.165Z,141.57
2019-03-05T02:53:20.796Z,142.30
2019-03-05T02:56:02.593Z,141.97
2019-03-05T02:58:30.152Z,139.40
2019-03-05T03:01:12.464Z,141.27
2019-03-05T03:03:42.668Z,141.97
2019-03-05T03:06:12.849Z,138.10
2019-03-05T03:08:41.408Z,136.80
2019-03-05T03:11:10.015Z,139.87
2019-03-05T03:13:38.583Z,149.60
2019-03-05T03:16:07.162Z,139.63
2019-03-05T03:18:35.771Z,136.33
2019-03-05T03:21:04.261Z,131.93
2019-03-05T03:23:32.843Z,135.37
2019-03-05T03:26:01.065Z,134.60
2019-03-05T03:28:29.566Z,134.40
2019-03-05T03:30:59.043Z,133.53
2019-03-05T03:33:27.641Z,144.93
2019-03-05T03:35:56.501Z,149.10
2019-03-05T03:38:25.056Z,149.90
2019-03-05T03:40:53.589Z,139.23
2019-03-05T03:43:22.164Z,154.30
2019-03-05T03:45:50.422Z,142.70
2019-03-05T03:48:19.179Z,136.17
2019-03-05T03:50:47.905Z,146.27
2019-03-05T03:53:16.475Z,139.90
2019-03-05T03:55:45.077Z,133.00
2019-03-05T03:58:13.705Z,137.90
2019-03-05T04:00:42.277Z,139.17
2019-03-05T04:03:10.950Z,141.13
2019-03-05T04:05:39.355Z,156.63
2019-03-05T04:08:10.306Z,147.03
2019-03-05T04:10:38.160Z,140.60
2019-03-05T04:13:06.673Z,159.33
2019-03-05T04:15:35.308Z,136.80
2019-03-05T04:18:03.667Z,135.20
2019-03-05T04:20:33.090Z,139.23
2019-03-05T04:23:01.368Z,145.43
2019-03-05T04:25:30.034Z,136.23
2019-03-05T04:27:58.547Z,148.80
2019-03-05T04:30:27.042Z,144.47
2019-03-05T04:32:55.578Z,133.87
2019-03-05T04:35:24.153Z,149.53
2019-03-05T04:37:52.713Z,147.53
2019-03-05T04:40:21.320Z,136.27
2019-03-05T04:42:49.574Z,134.20
2019-03-05T04:45:50.557Z,133.03
2019-03-05T04:48:19.128Z,131.23
2019-03-05T04:50:55.105Z,132.70
2019-03-05T04:53:23.680Z,154.33
2019-03-05T04:55:52.178Z,132.63
2019-03-05T04:58:20.782Z,140.27
2019-03-05T05:00:49.275Z,135.20
2019-03-05T05:03:17.776Z,140.93
2019-03-05T05:05:46.308Z,143.00
2019-03-05T05:08:14.497Z,135.33
2019-03-05T05:10:43.140Z,144.60
2019-03-05T05:13:11.826Z,139.17
2019-03-05T05:15:41.399Z,138.50
2019-03-05T05:18:09.911Z,146.17
2019-03-05T05:20:38.645Z,133.87
2019-03-05T05:23:07.197Z,139.30
2019-03-05T05:25:35.806Z,150.73
2019-03-05T05:28:04.312Z,135.67
2019-03-05T05:30:37.743Z,141.33
2019-03-05T05:33:07.348Z,134.70
2019-03-05T05:35:35.847Z,140.40
2019-03-05T05:38:04.777Z,141.07
2019-03-05T05:40:42.224Z,134.17
2019-03-05T05:43:22.690Z,146.63
2019-03-05T05:45:52.711Z,156.90
2019-03-05T05:48:21.364Z,145.57
2019-03-05T05:50:49.930Z,155.73
2019-03-05T05:53:18.543Z,145.37
2019-03-05T05:55:47.110Z,135.37
2019-03-05T05:58:15.742Z,129.70
2019-03-05T06:00:46.379Z,130.37
2019-03-05T06:03:14.879Z,141.03
2019-03-05T06:05:43.445Z,128.30
2019-03-05T06:08:11.809Z,134.67
2019-03-05T06:10:40.535Z,132.30
2019-03-05T06:13:09.128Z,146.83
2019-03-05T06:15:37.423Z,132.80
2019-03-05T06:18:05.682Z,183.87
2019-03-05T06:20:33.939Z,192.73
2019-03-05T06:23:02.556Z,181.93
2019-03-05T06:25:31.129Z,191.70
2019-03-05T06:27:59.632Z,191.77
2019-03-05T06:30:30.830Z,193.00
2019-03-05T06:32:59.371Z,190.40
2019-03-05T06:35:27.931Z,197.30
2019-03-05T06:37:56.460Z,190.83
2019-03-05T06:40:29.834Z,179.77
2019-03-05T06:42:58.414Z,182.23
2019-03-05T06:45:26.645Z,191.00
2019-03-05T06:47:55.274Z,188.50
2019-03-05T06:50:25.025Z,193.43
2019-03-05T06:52:53.792Z,202.07
2019-03-05T06:55:22.047Z,188.33
2019-03-05T06:57:50.624Z,191.83
2019-03-05T07:00:33.941Z,208.57
2019-03-05T07:03:02.496Z,187.70
2019-03-05T07:05:49.011Z,209.43
2019-03-05T07:08:17.588Z,183.43
2019-03-05T07:10:47.411Z,176.43
2019-03-05T07:13:16.022Z,188.50
2019-03-05T07:15:56.567Z,192.60
2019-03-05T07:18:28.300Z,211.13
2019-03-05T07:21:16.523Z,320.90
2019-03-05T07:24:04.841Z,222.17
2019-03-05T07:26:33.406Z,177.00
2019-03-05T07:29:04.317Z,214.43
2019-03-05T07:31:32.996Z,202.00
2019-03-05T07:34:01.644Z,196.20
2019-03-05T07:36:31.111Z,189.70
2019-03-05T07:39:00.155Z,209.53
2019-03-05T07:41:28.740Z,150.67
2019-03-05T07:43:57.357Z,8.33
2019-03-05T07:46:25.884Z,8.80
2019-03-05T07:48:54.459Z,13.63
2019-03-05T07:51:22.948Z,179.87
2019-03-05T07:53:51.903Z,181.17
2019-03-05T07:56:20.502Z,144.07
2019-03-05T07:58:48.998Z,133.33
2019-03-05T08:01:22.205Z,153.83
2019-03-05T08:03:47.735Z,125.80
2019-03-05T08:06:16.259Z,147.30
2019-03-05T08:09:21.570Z,35.40
2019-03-05T08:11:50.070Z,122.57
2019-03-05T08:14:33.798Z,127.77
2019-03-05T08:17:02.503Z,51.57
2019-03-05T08:19:30.971Z,73.60
2019-03-05T08:21:59.523Z,58.17
2019-03-05T08:24:28.090Z,93.53
2019-03-05T08:26:56.654Z,79.50
2019-03-05T08:29:25.379Z,39.70
2019-03-05T08:31:54.170Z,23.77
2019-03-05T08:34:22.673Z,15.10
2019-03-05T08:36:51.280Z,15.60
2019-03-05T08:39:19.775Z,10.57
2019-03-05T08:41:48.349Z,22.80
2019-03-05T08:44:16.878Z,15.43
2019-03-05T08:46:45.356Z,8.60
2019-03-05T08:49:13.848Z,8.73
2019-03-05T08:51:42.536Z,6.90
2019-03-05T08:54:11.185Z,10.53
2019-03-05T08:56:39.746Z,13.33
2019-03-05T08:59:08.402Z,23.40
2019-03-05T09:01:37.012Z,15.37
2019-03-05T09:04:05.649Z,7.27
2019-03-05T09:06:34.322Z,10.87
2019-03-05T09:09:03.752Z,19.50
2019-03-05T09:11:32.379Z,7.57
2019-03-05T09:14:00.982Z,11.17
2019-03-05T09:16:29.570Z,14.87
2019-03-05T09:18:58.199Z,16.53
2019-03-05T09:21:29.249Z,17.47
2019-03-05T09:23:57.883Z,12.23
2019-03-05T09:26:26.442Z,17.83
2019-03-05T09:28:55.105Z,12.90
2019-03-05T09:31:23.741Z,11.37
2019-03-05T09:33:52.374Z,9.57
2019-03-05T09:36:21.044Z,20.97
2019-03-05T09:38:49.688Z,11.93
2019-03-05T09:41:18.247Z,11.83
2019-03-05T09:43:46.944Z,8.87
2019-03-05T09:46:15.566Z,13.33
2019-03-05T09:48:44.142Z,11.30
2019-03-05T09:51:12.830Z,11.80
2019-03-05T09:53:41.397Z,13.50
2019-03-05T09:56:10.066Z,12.17
2019-03-05T09:58:38.673Z,11.53
2019-03-05T10:01:07.351Z,16.10
2019-03-05T10:03:35.853Z,14.17
2019-03-05T10:06:04.711Z,11.40
2019-03-05T10:08:33.353Z,11.77
2019-03-05T10:11:01.917Z,16.53
2019-03-05T10:13:30.521Z,8.30
2019-03-05T10:15:59.073Z,11.97
2019-03-05T10:18:27.702Z,17.57
2019-03-05T10:20:56.389Z,19.17
2019-03-05T10:23:25.030Z,16.00
2019-03-05T10:25:53.711Z,15.23
2019-03-05T10:28:22.337Z,11.80
2019-03-05T10:30:50.966Z,8.53
2019-03-05T10:33:19.596Z,8.67
2019-03-05T10:35:48.387Z,18.83
2019-03-05T10:38:17.041Z,13.23
2019-03-05T10:40:47.470Z,18.83
2019-03-05T10:43:17.254Z,8.93
2019-03-05T10:45:49.647Z,16.60
2019-03-05T10:48:23.625Z,14.80
2019-03-05T10:50:52.265Z,6.53
2019-03-05T10:53:21.100Z,9.63
2019-03-05T10:55:49.787Z,8.57
2019-03-05T10:58:39.256Z,10.97
2019-03-05T11:01:08.234Z,15.63
2019-03-05T11:03:36.792Z,10.83
2019-03-05T11:06:06.157Z,10.20
2019-03-05T11:08:34.828Z,18.67
2019-03-05T11:11:13.077Z,11.37
2019-03-05T11:13:33.680Z,11.67
2019-03-05T11:16:04.749Z,12.57
2019-03-05T11:18:33.317Z,8.97
2019-03-05T11:21:01.882Z,19.93
2019-03-05T11:23:30.550Z,11.07
2019-03-05T11:25:59.127Z,14.43
2019-03-05T11:28:27.686Z,14.50
2019-03-05T11:30:56.291Z,11.47
2019-03-05T11:33:24.797Z,14.27
2019-03-05T11:35:53.414Z,14.40
2019-03-05T11:38:22.087Z,13.87
2019-03-05T11:40:50.642Z,13.60
2019-03-05T11:43:19.215Z,14.10
2019-03-05T11:45:48.193Z,27.27
2019-03-05T11:48:16.805Z,17.67
2019-03-05T11:50:45.336Z,19.03
2019-03-05T11:53:14.010Z,14.93
2019-03-05T11:55:42.648Z,13.33
2019-03-05T11:58:11.202Z,10.20
2019-03-05T12:00:47.436Z,10.13
2019-03-05T12:03:16.060Z,28.27
2019-03-05T12:05:44.619Z,23.07
2019-03-05T12:08:13.300Z,18.70
2019-03-05T12:10:42.300Z,16.17
2019-03-05T12:13:10.855Z,11.40
2019-03-05T12:15:42.001Z,15.90
2019-03-05T12:18:10.562Z,13.20
2019-03-05T12:20:39.123Z,15.40
2019-03-05T12:23:10.327Z,21.07
2019-03-05T12:25:39.936Z,18.87
2019-03-05T12:28:10.529Z,17.70
2019-03-05T12:30:38.519Z,14.83
2019-03-05T12:33:07.090Z,23.47
2019-03-05T12:35:35.760Z,185.37
2019-03-05T12:38:04.333Z,203.00
2019-03-05T12:40:32.921Z,195.17
2019-03-05T12:43:01.470Z,153.93
2019-03-05T12:45:31.293Z,150.97
2019-03-05T12:47:59.888Z,139.57
2019-03-05T12:50:33.105Z,123.40
2019-03-05T12:53:01.776Z,31.23
2019-03-05T12:55:30.414Z,15.93
2019-03-05T12:57:58.914Z,15.43
2019-03-05T13:00:28.981Z,11.30
2019-03-05T13:02:57.844Z,12.60
2019-03-05T13:05:29.183Z,15.00
2019-03-05T13:07:57.999Z,11.00
2019-03-05T13:10:27.717Z,13.03
2019-03-05T13:12:56.738Z,9.70
2019-03-05T13:15:32.201Z,19.10
2019-03-05T13:18:00.762Z,16.13
2019-03-05T13:20:32.288Z,12.77
2019-03-05T13:23:08.870Z,8.20
2019-03-05T13:25:31.727Z,15.53
2019-03-05T13:28:02.080Z,8.30
2019-03-05T13:30:33.459Z,13.90
2019-03-05T13:33:02.427Z,20.63
2019-03-05T13:35:32.192Z,19.20
2019-03-05T13:38:09.770Z,19.70
2019-03-05T13:40:40.591Z,17.53
2019-03-05T13:43:09.082Z,9.17
2019-03-05T13:45:37.746Z,11.13
2019-03-05T13:48:44.535Z,9.10
2019-03-05T13:51:19.570Z,8.77
2019-03-05T13:54:22.130Z,12.77
2019-03-05T13:57:15.266Z,13.87
2019-03-05T13:59:47.821Z,8.63
2019-03-05T14:02:27.695Z,12.37
2019-03-05T14:05:14.467Z,8.83
2019-03-05T14:08:03.215Z,21.43
2019-03-05T14:10:31.946Z,10.07
2019-03-05T14:13:01.463Z,6.20
2019-03-05T14:15:30.345Z,12.73
2019-03-05T14:17:58.947Z,26.93
2019-03-05T14:20:31.722Z,19.90
2019-03-05T14:22:57.836Z,16.10
2019-03-05T14:25:26.457Z,19.87
2019-03-05T14:27:55.447Z,10.63
2019-03-05T14:30:24.064Z,22.80
2019-03-05T14:32:52.656Z,22.40
2019-03-05T14:35:22.076Z,12.23
2019-03-05T14:37:50.700Z,11.23
2019-03-05T14:40:24.493Z,24.33
2019-03-05T14:42:52.732Z,17.33
2019-03-05T14:45:23.904Z,12.43
2019-03-05T14:47:53.877Z,11.93
2019-03-05T14:50:22.487Z,14.57
2019-03-05T14:52:51.059Z,20.07
2019-03-05T14:55:19.658Z,12.47
2019-03-05T14:57:48.311Z,17.37
2019-03-05T15:00:19.524Z,17.67
2019-03-05T15:02:48.491Z,15.93
2019-03-05T15:05:17.122Z,17.63
2019-03-05T15:07:45.745Z,13.87
2019-03-05T15:10:14.308Z,25.23
2019-03-05T15:12:42.826Z,13.37
2019-03-05T15:15:14.521Z,23.37
2019-03-05T15:17:43.110Z,13.43
2019-03-05T15:20:11.933Z,13.33
2019-03-05T15:22:40.508Z,12.60
2019-03-05T15:25:14.676Z,9.93
2019-03-05T15:27:43.256Z,9.27
2019-03-05T15:30:17.371Z,21.43
2019-03-05T15:32:45.999Z,13.33
2019-03-05T15:35:14.673Z,17.07
2019-03-05T15:37:43.478Z,13.60
2019-03-05T15:40:13.998Z,18.40
2019-03-05T15:42:42.727Z,13.47
2019-03-05T15:45:13.899Z,13.33
2019-03-05T15:47:42.803Z,17.73
2019-03-05T15:50:14.564Z,16.43
2019-03-05T15:52:43.364Z,15.77
2019-03-05T15:55:14.326Z,11.87
2019-03-05T15:57:42.846Z,21.67
2019-03-05T16:00:36.488Z,18.90
2019-03-05T16:03:05.150Z,12.43
2019-03-05T16:05:33.843Z,11.07
2019-03-05T16:08:02.447Z,15.60
2019-03-05T16:10:33.865Z,18.17
2019-03-05T16:13:02.438Z,25.53
2019-03-05T16:15:30.962Z,19.03
2019-03-05T16:18:01.415Z,22.67
2019-03-05T16:20:29.914Z,15.17
2019-03-05T16:22:58.554Z,23.50
2019-03-05T16:25:27.189Z,118.87
2019-03-05T16:27:55.845Z,74.43
2019-03-05T16:30:47.465Z,81.30
2019-03-05T16:33:17.666Z,26.63
2019-03-05T16:35:51.967Z,21.87
2019-03-05T16:38:28.634Z,13.70
2019-03-05T16:41:17.067Z,10.97
2019-03-05T16:43:47.030Z,5.93
2019-03-05T16:46:22.825Z,15.67
2019-03-05T16:48:59.241Z,11.80
2019-03-05T16:51:37.973Z,7.00
2019-03-05T16:54:08.227Z,13.43
2019-03-05T16:56:38.446Z,11.80
2019-03-05T16:59:17.562Z,11.43
2019-03-05T17:01:56.728Z,15.27
2019-03-05T17:04:27.051Z,13.67
2019-03-05T17:07:09.588Z,38.30
2019-03-05T17:09:49.095Z,12.90
2019-03-05T17:12:17.667Z,11.83
2019-03-05T17:14:46.780Z,24.23
2019-03-05T17:17:15.455Z,16.13
2019-03-05T17:19:44.294Z,15.97
2019-03-05T17:22:12.858Z,22.67
2019-03-05T17:24:41.452Z,18.00
2019-03-05T17:27:10.091Z,18.43
2019-03-05T17:29:38.671Z,12.73
2019-03-05T17:32:07.484Z,17.43
2019-03-05T17:34:37.681Z,26.97
2019-03-05T17:37:06.288Z,23.27
2019-03-05T17:39:34.983Z,18.17
2019-03-05T17:42:04.735Z,13.50
2019-03-05T17:44:34.858Z,19.97
2019-03-05T17:47:03.566Z,19.27
2019-03-05T17:49:33.275Z,17.43
2019-03-05T17:52:01.838Z,22.40
2019-03-05T17:54:30.376Z,20.00
2019-03-05T17:56:59.256Z,22.07
2019-03-05T17:59:27.812Z,18.53
2019-03-05T18:01:56.503Z,28.67
2019-03-05T18:04:25.298Z,29.30
2019-03-05T18:06:53.870Z,19.23
2019-03-05T18:09:22.486Z,26.03
2019-03-05T18:11:51.067Z,26.30
2019-03-05T18:14:21.727Z,30.27
2019-03-05T18:16:50.597Z,37.00
2019-03-05T18:19:19.164Z,16.37
2019-03-05T18:21:47.803Z,17.03
2019-03-05T18:24:17.424Z,17.30
2019-03-05T18:26:45.936Z,16.47
2019-03-05T18:29:14.425Z,21.87
2019-03-05T18:31:43.036Z,31.93
2019-03-05T18:34:11.609Z,13.73
2019-03-05T18:36:40.164Z,14.73
2019-03-05T18:39:09.426Z,11.80
2019-03-05T18:41:37.987Z,21.10
2019-03-05T18:44:06.559Z,19.53
2019-03-05T18:46:37.064Z,18.07
2019-03-05T18:49:05.618Z,14.57
2019-03-05T18:51:34.942Z,22.07
2019-03-05T18:54:04.594Z,12.17
2019-03-05T18:56:33.494Z,15.60
2019-03-05T18:59:03.212Z,27.97
2019-03-05T19:01:31.754Z,26.70
2019-03-05T19:04:00.386Z,28.93
2019-03-05T19:06:29.531Z,26.03
2019-03-05T19:08:58.573Z,12.53
2019-03-05T19:11:27.549Z,15.00
2019-03-05T19:13:56.105Z,19.73
2019-03-05T19:16:24.724Z,23.83
2019-03-05T19:18:53.360Z,18.47
2019-03-05T19:21:25.581Z,19.23
2019-03-05T19:23:53.818Z,360.43
2019-03-05T19:26:22.472Z,284.93
2019-03-05T19:28:51.047Z,197.83
2019-03-05T19:31:19.741Z,187.27
2019-03-05T19:33:50.273Z,189.43
2019-03-05T19:36:18.630Z,254.33
2019-03-05T19:38:47.271Z,211.17
2019-03-05T19:41:15.600Z,185.17
2019-03-05T19:43:44.240Z,176.60
2019-03-05T19:46:12.841Z,167.87
2019-03-05T19:48:41.392Z,173.53
2019-03-05T19:51:10.047Z,205.00
2019-03-05T19:53:38.424Z,200.20
2019-03-05T19:56:07.439Z,177.97
2019-03-05T19:58:37.393Z,199.40
2019-03-05T20:01:07.705Z,203.17
2019-03-05T20:03:36.034Z,181.57
2019-03-05T20:06:05.517Z,192.27
2019-03-05T20:08:39.977Z,205.83
2019-03-05T20:11:04.772Z,206.00
2019-03-05T20:13:33.444Z,173.03
2019-03-05T20:16:05.603Z,169.50
2019-03-05T20:18:34.203Z,200.97
2019-03-05T20:21:02.851Z,200.83
2019-03-05T20:23:31.533Z,263.53
2019-03-05T20:26:00.189Z,187.20
2019-03-05T20:28:29.367Z,195.83
2019-03-05T20:30:59.107Z,203.93
2019-03-05T20:33:28.093Z,130.30
2019-03-05T20:35:56.714Z,85.93
2019-03-05T20:38:27.217Z,104.10
2019-03-05T20:40:56.259Z,132.67
2019-03-05T20:43:25.009Z,143.57
2019-03-05T20:45:57.356Z,107.07
2019-03-05T20:48:26.020Z,96.47
2019-03-05T20:50:54.629Z,58.67
2019-03-05T20:53:23.320Z,31.47
2019-03-05T20:55:53.522Z,29.60
2019-03-05T20:58:25.176Z,29.87
2019-03-05T21:00:53.845Z,23.27
2019-03-05T21:03:22.484Z,142.03
2019-03-05T21:05:51.128Z,163.13
2019-03-05T21:08:20.249Z,139.33
2019-03-05T21:10:51.167Z,109.53
2019-03-05T21:13:19.960Z,182.63
2019-03-05T21:15:48.566Z,129.20
2019-03-05T21:18:19.561Z,144.63
2019-03-05T21:20:48.291Z,162.43
2019-03-05T21:23:17.319Z,151.87
2019-03-05T21:25:45.965Z,131.70
2019-03-05T21:28:14.627Z,104.50
2019-03-05T21:30:43.371Z,134.10
2019-03-05T21:33:12.504Z,127.93
2019-03-05T21:35:41.338Z,150.17
2019-03-05T21:38:10.081Z,162.80
2019-03-05T21:40:39.073Z,193.27
2019-03-05T21:43:07.736Z,134.73
2019-03-05T21:45:41.802Z,197.20
2019-03-05T21:48:10.489Z,194.77
2019-03-05T21:50:39.138Z,191.50
2019-03-05T21:53:07.709Z,151.03
2019-03-05T21:55:38.027Z,183.67
2019-03-05T21:58:06.620Z,197.10
2019-03-05T22:00:40.795Z,215.73
2019-03-05T22:03:28.782Z,198.37
2019-03-05T22:05:57.415Z,217.80
2019-03-05T22:08:26.046Z,201.47
2019-03-05T22:10:54.717Z,198.13
2019-03-05T22:13:23.664Z,191.67
2019-03-05T22:15:52.247Z,202.93
2019-03-05T22:18:20.817Z,196.00
2019-03-05T22:20:49.519Z,208.87
2019-03-05T22:23:18.199Z,197.50
2019-03-05T22:25:46.808Z,196.63
2019-03-05T22:28:15.428Z,195.97
2019-03-05T22:30:44.163Z,192.10
2019-03-05T22:33:12.735Z,194.67
2019-03-05T22:35:42.009Z,196.33
2019-03-05T22:38:10.475Z,192.40
2019-03-05T22:40:39.056Z,185.30
2019-03-05T22:43:07.607Z,202.33
2019-03-05T22:45:36.252Z,200.87
2019-03-05T22:48:04.826Z,200.27
2019-03-05T22:50:33.427Z,194.67
2019-03-05T22:53:02.313Z,189.60
2019-03-05T22:55:30.963Z,190.60
2019-03-05T22:57:59.772Z,194.27
2019-03-05T23:01:00.087Z,188.23
2019-03-05T23:03:30.202Z,184.67
2019-03-05T23:05:59.991Z,201.50
2019-03-05T23:08:29.602Z,210.90
2019-03-05T23:10:58.287Z,199.43
2019-03-05T23:13:27.321Z,202.90
2019-03-05T23:15:56.010Z,204.27
2019-03-05T23:18:24.621Z,190.83
2019-03-05T23:20:53.190Z,197.97
2019-03-05T23:23:21.702Z,187.77
2019-03-05T23:25:51.954Z,208.60
2019-03-05T23:28:20.520Z,146.97
2019-03-05T23:30:49.723Z,102.07
2019-03-05T23:33:18.725Z,190.63
2019-03-05T23:35:48.594Z,182.60
2019-03-05T23:38:17.182Z,53.50
2019-03-05T23:40:45.795Z,27.47
2019-03-05T23:43:14.352Z,16.10
2019-03-05T23:45:43.206Z,6.43
2019-03-05T23:48:11.759Z,49.87
2019-03-05T23:50:40.240Z,56.93
2019-03-05T23:53:09.220Z,15.10
2019-03-05T23:55:37.746Z,12.13
2019-03-05T23:58:06.249Z,9.77
